createdAt,value
2022-08-17T00:00:43.678Z,29.35
2022-08-17T00:03:13.669Z,37.08
2022-08-17T00:05:49.636Z,25.38
2022-08-17T00:08:20.433Z,19.85
2022-08-17T00:10:50.636Z,28.60
2022-08-17T00:13:22.038Z,25.88
2022-08-17T00:15:51.031Z,27.75
2022-08-17T00:19:01.315Z,22.00
2022-08-17T00:21:11.386Z,20.60
2022-08-17T00:23:44.325Z,26.15
2022-08-17T00:26:43.551Z,27.33
2022-08-17T00:29:09.463Z,30.05
2022-08-17T00:31:47.928Z,30.30
2022-08-17T00:34:16.503Z,32.47
2022-08-17T00:36:46.655Z,25.25
2022-08-17T00:39:15.105Z,29.35
2022-08-17T00:41:43.726Z,25.08
2022-08-17T00:44:12.472Z,22.52
2022-08-17T00:46:43.133Z,25.25
2022-08-17T00:49:13.615Z,26.98
2022-08-17T00:51:45.564Z,26.55
2022-08-17T00:54:20.140Z,19.73
2022-08-17T00:56:52.124Z,23.55
2022-08-17T00:59:24.223Z,22.80
2022-08-17T01:01:53.936Z,22.38
2022-08-17T01:04:24.429Z,27.73
2022-08-17T01:06:53.707Z,24.60
2022-08-17T01:09:24.263Z,31.05
2022-08-17T01:11:53.226Z,28.10
2022-08-17T01:14:22.518Z,25.27
2022-08-17T01:16:52.721Z,24.02
2022-08-17T01:19:23.854Z,26.77
2022-08-17T01:21:56.445Z,23.17
2022-08-17T01:24:26.647Z,29.92
2022-08-17T01:26:56.513Z,25.98
2022-08-17T01:29:27.200Z,28.30
2022-08-17T01:31:58.732Z,23.33
2022-08-17T01:34:38.059Z,29.52
2022-08-17T01:37:13.984Z,26.80
2022-08-17T01:39:48.913Z,27.58
2022-08-17T01:42:24.186Z,31.25
2022-08-17T01:44:57.169Z,25.98
2022-08-17T01:47:25.782Z,28.20
2022-08-17T01:49:54.200Z,33.13
2022-08-17T01:52:24.021Z,22.33
2022-08-17T01:54:54.738Z,27.23
2022-08-17T01:59:51.428Z,31.95
2022-08-17T02:02:30.260Z,34.58
2022-08-17T02:05:01.090Z,29.73
2022-08-17T02:07:30.106Z,29.88
2022-08-17T02:10:00.744Z,28.15
2022-08-17T02:12:37.862Z,23.80
2022-08-17T02:15:09.047Z,30.20
2022-08-17T02:17:37.713Z,25.90
2022-08-17T02:20:08.041Z,26.05
2022-08-17T02:22:37.822Z,21.90
2022-08-17T02:25:10.959Z,18.67
2022-08-17T02:27:40.647Z,23.45
2022-08-17T02:30:59.243Z,27.33
2022-08-17T02:33:04.058Z,29.45
2022-08-17T02:35:34.826Z,29.73
2022-08-17T02:38:06.186Z,28.92
2022-08-17T02:40:37.226Z,31.55
2022-08-17T02:43:05.814Z,37.30
2022-08-17T02:45:37.677Z,38.88
2022-08-17T02:48:06.576Z,29.60
2022-08-17T02:50:35.128Z,31.15
2022-08-17T02:53:04.039Z,27.38
2022-08-17T02:55:36.901Z,26.77
2022-08-17T02:58:05.836Z,29.50
2022-08-17T03:00:37.029Z,34.53
2022-08-17T03:03:07.356Z,28.75
2022-08-17T03:05:39.340Z,29.40
2022-08-17T03:08:13.211Z,34.00
2022-08-17T03:10:45.136Z,36.45
2022-08-17T03:13:15.902Z,26.13
2022-08-17T03:15:46.560Z,38.80
2022-08-17T03:20:53.941Z,42.50
2022-08-17T03:23:24.331Z,33.13
2022-08-17T03:28:25.008Z,35.40
2022-08-17T03:30:53.938Z,34.00
2022-08-17T03:33:22.679Z,36.13
2022-08-17T03:35:51.843Z,38.88
2022-08-17T03:38:20.603Z,32.78
2022-08-17T03:40:58.410Z,33.58
2022-08-17T03:43:31.653Z,35.83
2022-08-17T03:46:27.724Z,38.17
2022-08-17T03:49:21.524Z,34.50
2022-08-17T03:52:07.545Z,34.03
2022-08-17T03:54:53.293Z,35.95
2022-08-17T03:57:21.927Z,32.83
2022-08-17T03:59:52.008Z,35.08
2022-08-17T04:02:23.350Z,34.30
2022-08-17T04:04:52.571Z,33.22
2022-08-17T04:07:22.226Z,34.92
2022-08-17T04:09:51.089Z,34.85
2022-08-17T04:12:21.662Z,42.55
2022-08-17T04:14:54.769Z,41.10
2022-08-17T04:17:26.471Z,39.28
2022-08-17T04:19:56.526Z,35.97
2022-08-17T04:22:31.184Z,42.92
2022-08-17T04:25:04.952Z,32.92
2022-08-17T04:27:33.670Z,38.65
2022-08-17T04:30:03.669Z,40.60
2022-08-17T04:32:59.307Z,35.42
2022-08-17T04:35:24.157Z,38.78
2022-08-17T04:37:53.312Z,45.08
2022-08-17T04:40:40.404Z,44.25
2022-08-17T04:43:11.038Z,43.83
2022-08-17T04:48:35.783Z,46.88
2022-08-17T04:51:10.124Z,42.50
2022-08-17T04:53:40.757Z,41.15
2022-08-17T04:56:11.719Z,49.00
2022-08-17T04:58:46.561Z,44.50
2022-08-17T05:01:23.781Z,47.88
2022-08-17T05:03:53.512Z,36.92
2022-08-17T05:06:22.247Z,44.47
2022-08-17T05:08:51.019Z,43.40
2022-08-17T05:11:19.851Z,41.95
2022-08-17T05:13:51.119Z,56.17
2022-08-17T05:16:22.678Z,41.90
2022-08-17T05:18:51.623Z,47.63
2022-08-17T05:21:21.381Z,41.70
2022-08-17T05:23:54.921Z,47.57
2022-08-17T05:26:25.975Z,52.28
2022-08-17T05:28:57.274Z,41.60
2022-08-17T05:31:30.744Z,54.67
2022-08-17T05:33:59.404Z,46.92
2022-08-17T05:36:42.154Z,53.03
2022-08-17T05:39:15.725Z,52.88
2022-08-17T05:41:47.590Z,44.38
2022-08-17T05:44:16.571Z,42.95
2022-08-17T05:46:50.390Z,57.45
2022-08-17T05:49:24.676Z,51.35
2022-08-17T05:52:19.757Z,41.78
2022-08-17T05:55:11.961Z,43.38
2022-08-17T05:57:54.180Z,48.22
2022-08-17T06:00:30.889Z,43.22
2022-08-17T06:03:23.902Z,57.95
2022-08-17T06:06:31.366Z,44.33
2022-08-17T06:09:12.740Z,41.15
2022-08-17T06:11:53.436Z,38.30
2022-08-17T06:14:40.780Z,44.30
2022-08-17T06:17:16.799Z,44.47
2022-08-17T06:19:52.505Z,37.08
2022-08-17T06:22:24.766Z,45.78
2022-08-17T06:24:59.009Z,42.42
2022-08-17T06:27:34.247Z,38.70
2022-08-17T06:30:09.427Z,43.05
2022-08-17T06:32:39.954Z,36.20
2022-08-17T06:37:57.586Z,39.42
2022-08-17T06:40:41.585Z,52.67
2022-08-17T06:43:24.662Z,52.92
2022-08-17T06:46:00.760Z,53.15
2022-08-17T06:48:42.862Z,48.17
2022-08-17T06:51:20.440Z,43.28
2022-08-17T06:53:54.243Z,34.72
2022-08-17T06:56:53.826Z,42.00
2022-08-17T06:59:26.899Z,44.75
2022-08-17T07:02:29.077Z,40.72
2022-08-17T07:05:14.663Z,47.08
2022-08-17T07:08:05.821Z,45.08
2022-08-17T07:10:40.833Z,44.13
2022-08-17T07:13:29.639Z,45.78
2022-08-17T07:16:09.846Z,47.97
2022-08-17T07:18:38.443Z,42.65
2022-08-17T07:21:20.731Z,39.78
2022-08-17T07:24:05.423Z,36.83
2022-08-17T07:26:34.106Z,42.88
2022-08-17T07:29:03.682Z,52.65
2022-08-17T07:31:33.864Z,40.72
2022-08-17T07:34:08.144Z,50.55
2022-08-17T07:36:36.885Z,42.95
2022-08-17T07:39:07.003Z,47.55
2022-08-17T07:41:53.068Z,42.05
2022-08-17T07:44:28.448Z,41.72
2022-08-17T07:47:15.472Z,33.10
2022-08-17T07:49:47.586Z,41.53
2022-08-17T07:52:51.882Z,49.95
2022-08-17T07:55:30.702Z,39.88
2022-08-17T07:58:00.480Z,43.85
2022-08-17T08:00:32.111Z,44.85
2022-08-17T08:03:06.560Z,38.47
2022-08-17T08:05:50.083Z,28.60
2022-08-17T08:08:38.947Z,37.30
2022-08-17T08:11:11.685Z,38.60
2022-08-17T08:13:44.023Z,43.92
2022-08-17T08:16:30.587Z,35.97
2022-08-17T08:19:01.207Z,34.33
2022-08-17T08:21:47.705Z,32.63
2022-08-17T08:24:37.866Z,38.10
2022-08-17T08:27:19.821Z,30.17
2022-08-17T08:29:54.427Z,30.63
2022-08-17T08:32:37.496Z,32.53
2022-08-17T08:35:10.011Z,30.55
2022-08-17T08:37:49.732Z,26.75
2022-08-17T08:40:38.548Z,24.67
2022-08-17T08:43:22.332Z,30.27
2022-08-17T08:45:58.907Z,19.13
2022-08-17T08:48:57.798Z,30.67
2022-08-17T08:51:39.891Z,27.65
2022-08-17T08:54:16.733Z,31.08
2022-08-17T08:57:23.114Z,31.13
2022-08-17T09:00:08.851Z,30.73
2022-08-17T09:03:04.031Z,28.98
2022-08-17T09:05:48.431Z,30.83
2022-08-17T09:08:26.267Z,28.80
2022-08-17T09:11:01.307Z,20.45
2022-08-17T09:13:39.451Z,25.45
2022-08-17T09:16:16.211Z,34.85
2022-08-17T09:19:03.527Z,32.30
2022-08-17T09:21:48.030Z,30.13
2022-08-17T09:24:25.979Z,29.65
2022-08-17T09:27:03.878Z,33.92
2022-08-17T09:29:35.564Z,28.30
2022-08-17T09:32:14.993Z,27.75
2022-08-17T09:34:50.947Z,22.93
2022-08-17T09:37:28.826Z,34.92
2022-08-17T09:40:09.709Z,42.05
2022-08-17T09:42:46.821Z,35.05
2022-08-17T09:45:29.263Z,30.90
2022-08-17T09:48:03.480Z,28.00
2022-08-17T09:51:03.610Z,32.15
2022-08-17T09:53:27.022Z,29.60
2022-08-17T09:56:18.848Z,33.20
2022-08-17T09:59:04.288Z,38.15
2022-08-17T10:01:40.118Z,25.30
2022-08-17T10:04:29.369Z,35.17
2022-08-17T10:07:08.476Z,30.95
2022-08-17T10:09:48.637Z,26.40
2022-08-17T10:12:30.264Z,25.50
2022-08-17T10:15:15.459Z,24.10
2022-08-17T10:17:57.319Z,27.50
2022-08-17T10:20:31.485Z,31.17
2022-08-17T10:23:36.882Z,24.63
2022-08-17T10:26:15.585Z,21.67
2022-08-17T10:28:51.390Z,25.38
2022-08-17T10:31:40.056Z,25.58
2022-08-17T10:34:41.238Z,36.78
2022-08-17T10:37:35.254Z,29.35
2022-08-17T10:40:20.527Z,32.50
2022-08-17T10:42:56.256Z,31.13
2022-08-17T10:45:29.763Z,31.90
2022-08-17T10:48:06.157Z,43.38
2022-08-17T10:50:59.024Z,36.75
2022-08-17T10:53:54.508Z,29.23
2022-08-17T10:56:26.356Z,34.15
2022-08-17T10:58:57.766Z,22.52
2022-08-17T11:02:04.043Z,36.00
2022-08-17T11:04:50.130Z,24.83
2022-08-17T11:07:34.061Z,36.75
2022-08-17T11:10:21.114Z,32.90
2022-08-17T11:13:01.309Z,24.42
2022-08-17T11:15:47.570Z,29.85
2022-08-17T11:18:45.387Z,32.00
2022-08-17T11:21:57.467Z,27.08
2022-08-17T11:24:35.631Z,36.63
2022-08-17T11:27:12.358Z,29.23
2022-08-17T11:29:56.769Z,24.02
2022-08-17T11:32:37.170Z,29.73
2022-08-17T11:35:30.586Z,29.88
2022-08-17T11:38:16.714Z,29.35
2022-08-17T11:41:07.223Z,26.38
2022-08-17T11:44:04.455Z,21.52
2022-08-17T11:47:06.546Z,26.25
2022-08-17T11:50:08.155Z,22.83
2022-08-17T11:52:40.486Z,21.95
2022-08-17T11:55:34.141Z,22.38
2022-08-17T11:58:03.707Z,24.55
2022-08-17T12:00:51.983Z,24.00
2022-08-17T12:03:25.026Z,19.40
2022-08-17T12:06:04.514Z,19.35
2022-08-17T12:08:35.767Z,29.93
2022-08-17T12:11:08.757Z,25.88
2022-08-17T12:13:48.111Z,21.67
2022-08-17T12:16:20.061Z,23.92
2022-08-17T12:18:54.009Z,23.60
2022-08-17T12:21:38.814Z,20.67
2022-08-17T12:24:16.666Z,26.20
2022-08-17T12:26:53.450Z,16.60
2022-08-17T12:29:35.467Z,20.90
2022-08-17T12:32:17.911Z,22.00
2022-08-17T12:34:48.016Z,24.98
2022-08-17T12:37:20.106Z,15.07
2022-08-17T12:39:54.185Z,28.08
2022-08-17T12:42:25.910Z,25.80
2022-08-17T12:44:54.606Z,25.45
2022-08-17T12:47:24.663Z,20.90
2022-08-17T12:50:29.033Z,24.83
2022-08-17T12:53:01.715Z,28.27
2022-08-17T12:55:36.449Z,22.60
2022-08-17T12:58:05.461Z,25.15
2022-08-17T13:00:38.215Z,26.50
2022-08-17T13:03:14.386Z,23.13
2022-08-17T13:05:48.634Z,26.58
2022-08-17T13:08:20.202Z,20.58
2022-08-17T13:10:57.730Z,33.38
2022-08-17T13:13:29.127Z,19.40
2022-08-17T13:16:00.825Z,26.88
2022-08-17T13:18:42.530Z,19.23
2022-08-17T13:21:22.414Z,25.20
2022-08-17T13:24:03.315Z,23.90
2022-08-17T13:26:35.585Z,25.13
2022-08-17T13:29:07.834Z,37.08
2022-08-17T13:31:52.379Z,31.15
2022-08-17T13:34:50.246Z,18.88
2022-08-17T13:37:33.734Z,18.48
2022-08-17T13:40:26.444Z,22.58
2022-08-17T13:42:56.772Z,22.27
2022-08-17T13:45:44.867Z,28.77
2022-08-17T13:48:21.448Z,22.67
2022-08-17T13:51:20.886Z,15.05
2022-08-17T13:53:55.026Z,23.70
2022-08-17T13:56:39.513Z,22.80
2022-08-17T13:59:12.567Z,15.00
2022-08-17T14:01:44.006Z,18.48
2022-08-17T14:04:15.000Z,18.63
2022-08-17T14:06:54.147Z,34.85
2022-08-17T14:09:25.444Z,21.20
2022-08-17T14:11:55.601Z,25.65
2022-08-17T14:14:24.666Z,30.35
2022-08-17T14:16:54.183Z,25.30
2022-08-17T14:19:23.264Z,26.90
2022-08-17T14:21:59.118Z,26.10
2022-08-17T14:24:30.603Z,22.13
2022-08-17T14:27:03.563Z,25.67
2022-08-17T14:29:34.524Z,24.20
2022-08-17T14:32:13.338Z,29.92
2022-08-17T14:34:42.405Z,20.50
2022-08-17T14:37:12.424Z,17.83
2022-08-17T14:39:41.074Z,20.88
2022-08-17T14:42:11.572Z,30.88
2022-08-17T14:44:40.367Z,18.05
2022-08-17T14:47:12.143Z,21.25
2022-08-17T14:49:40.649Z,27.45
2022-08-17T14:52:13.980Z,23.37
2022-08-17T14:54:45.836Z,14.93
2022-08-17T14:57:25.207Z,42.40
2022-08-17T15:00:03.522Z,16.42
2022-08-17T15:02:32.220Z,21.83
2022-08-17T15:05:02.120Z,17.15
2022-08-17T15:07:32.225Z,21.13
2022-08-17T15:10:02.493Z,17.95
2022-08-17T15:12:34.274Z,17.10
2022-08-17T15:15:05.332Z,21.70
2022-08-17T15:17:44.837Z,25.25
2022-08-17T15:20:16.902Z,30.08
2022-08-17T15:22:49.982Z,37.80
2022-08-17T15:25:22.344Z,31.52
2022-08-17T15:27:52.889Z,26.50
2022-08-17T15:30:22.044Z,27.85
2022-08-17T15:32:55.153Z,39.22
2022-08-17T15:35:27.718Z,36.55
2022-08-17T15:38:06.277Z,40.67
2022-08-17T15:40:37.704Z,41.30
2022-08-17T15:43:07.521Z,41.15
2022-08-17T15:45:36.075Z,37.85
2022-08-17T15:48:05.256Z,47.42
2022-08-17T15:50:33.849Z,45.80
2022-08-17T15:53:05.459Z,42.50
2022-08-17T15:55:36.711Z,49.53
2022-08-17T15:58:05.757Z,43.08
2022-08-17T16:00:44.102Z,54.63
2022-08-17T16:04:01.841Z,38.35
2022-08-17T16:06:12.011Z,50.40
2022-08-17T16:08:44.016Z,42.75
2022-08-17T16:11:14.358Z,41.72
2022-08-17T16:13:47.395Z,39.50
2022-08-17T16:16:24.576Z,39.65
2022-08-17T16:18:55.572Z,35.22
2022-08-17T16:21:31.171Z,30.65
2022-08-17T16:24:14.845Z,33.80
2022-08-17T16:26:43.800Z,29.13
2022-08-17T16:29:12.563Z,31.52
2022-08-17T16:31:42.036Z,27.45
2022-08-17T16:34:16.753Z,25.80
2022-08-17T16:36:55.385Z,27.13
2022-08-17T16:39:27.457Z,29.70
2022-08-17T16:41:56.783Z,33.30
2022-08-17T16:44:29.141Z,30.50
2022-08-17T16:46:58.818Z,23.73
2022-08-17T16:49:37.046Z,21.75
2022-08-17T16:52:10.563Z,30.23
2022-08-17T16:54:43.912Z,41.17
2022-08-17T16:57:13.558Z,35.45
2022-08-17T16:59:47.790Z,38.42
2022-08-17T17:02:18.094Z,35.25
2022-08-17T17:04:51.968Z,41.88
2022-08-17T17:07:39.243Z,24.52
2022-08-17T17:10:14.724Z,28.15
2022-08-17T17:13:03.619Z,31.67
2022-08-17T17:15:47.719Z,35.42
2022-08-17T17:18:18.064Z,26.33
2022-08-17T17:20:56.459Z,33.47
2022-08-17T17:23:43.137Z,28.30
2022-08-17T17:26:33.181Z,39.22
2022-08-17T17:29:15.304Z,37.08
2022-08-17T17:31:52.655Z,30.90
2022-08-17T17:34:22.396Z,31.98
2022-08-17T17:36:53.504Z,45.08
2022-08-17T17:39:43.836Z,40.42
2022-08-17T17:42:20.081Z,44.67
2022-08-17T17:44:52.778Z,40.85
2022-08-17T17:47:22.403Z,39.65
2022-08-17T17:49:51.758Z,48.03
2022-08-17T17:52:29.693Z,48.25
2022-08-17T17:55:08.929Z,53.60
2022-08-17T17:57:51.743Z,55.42
2022-08-17T18:00:24.818Z,32.28
2022-08-17T18:03:12.880Z,35.80
2022-08-17T18:05:50.022Z,34.88
2022-08-17T18:08:35.960Z,32.72
2022-08-17T18:11:24.118Z,48.75
2022-08-17T18:14:09.143Z,32.40
2022-08-17T18:16:42.898Z,43.25
2022-08-17T18:19:14.943Z,39.15
2022-08-17T18:21:48.643Z,37.33
2022-08-17T18:24:29.122Z,51.55
2022-08-17T18:29:36.517Z,43.23
2022-08-17T18:32:25.984Z,56.70
2022-08-17T18:34:56.843Z,48.50
2022-08-17T18:37:39.127Z,38.10
2022-08-17T18:40:33.084Z,47.88
2022-08-17T18:43:08.628Z,36.88
2022-08-17T18:45:43.323Z,43.25
2022-08-17T18:48:22.298Z,56.53
2022-08-17T18:50:53.349Z,49.70
2022-08-17T18:53:33.270Z,55.08
2022-08-17T18:56:22.900Z,55.42
2022-08-17T18:59:04.266Z,71.97
2022-08-17T19:02:16.118Z,50.10
2022-08-17T19:05:01.079Z,42.80
2022-08-17T19:07:32.313Z,64.35
2022-08-17T19:10:12.206Z,50.90
2022-08-17T19:12:45.487Z,54.20
2022-08-17T19:15:18.886Z,50.58
2022-08-17T19:17:53.794Z,53.00
2022-08-17T19:20:30.093Z,43.30
2022-08-17T19:23:11.675Z,39.75
2022-08-17T19:25:47.020Z,39.65
2022-08-17T19:28:24.239Z,38.20
2022-08-17T19:30:58.001Z,46.70
2022-08-17T19:33:28.519Z,62.25
2022-08-17T19:36:07.364Z,59.90
2022-08-17T19:38:45.379Z,71.68
2022-08-17T19:41:23.080Z,64.53
2022-08-17T19:44:27.299Z,56.53
2022-08-17T19:47:06.134Z,37.95
2022-08-17T19:49:46.899Z,38.03
2022-08-17T19:52:33.178Z,49.17
2022-08-17T19:55:08.177Z,26.30
2022-08-17T19:57:45.435Z,40.65
2022-08-17T20:00:17.556Z,32.17
2022-08-17T20:02:52.895Z,38.35
2022-08-17T20:05:27.149Z,26.10
2022-08-17T20:08:01.717Z,30.20
2022-08-17T20:10:39.642Z,29.27
2022-08-17T20:13:12.978Z,31.77
2022-08-17T20:15:43.707Z,29.25
2022-08-17T20:20:57.988Z,33.92
2022-08-17T20:23:44.184Z,26.75
2022-08-17T20:26:20.229Z,23.60
2022-08-17T20:29:37.555Z,27.70
2022-08-17T20:34:48.950Z,20.75
2022-08-17T20:37:35.471Z,23.13
2022-08-17T20:40:23.684Z,23.05
2022-08-17T20:42:52.524Z,35.80
2022-08-17T20:45:59.345Z,33.40
2022-08-17T20:48:38.284Z,22.92
2022-08-17T20:51:19.495Z,46.03
2022-08-17T20:54:23.526Z,35.80
2022-08-17T20:56:57.906Z,33.30
2022-08-17T21:00:01.542Z,20.00
2022-08-17T21:02:33.108Z,20.45
2022-08-17T21:05:30.333Z,24.33
2022-08-17T21:08:02.607Z,31.52
2022-08-17T21:10:39.506Z,25.52
2022-08-17T21:13:38.738Z,21.92
2022-08-17T21:16:24.863Z,29.15
2022-08-17T21:19:02.659Z,22.80
2022-08-17T21:21:42.664Z,25.42
2022-08-17T21:24:28.479Z,28.80
2022-08-17T21:27:09.639Z,23.05
2022-08-17T21:29:54.178Z,21.85
2022-08-17T21:32:31.275Z,17.50
2022-08-17T21:35:23.722Z,17.50
2022-08-17T21:37:55.383Z,30.13
2022-08-17T21:40:28.016Z,26.38
2022-08-17T21:43:01.826Z,22.70
2022-08-17T21:45:35.284Z,24.00
2022-08-17T21:48:14.485Z,32.75
2022-08-17T21:50:45.138Z,27.63
2022-08-17T21:53:23.118Z,35.95
2022-08-17T21:55:53.259Z,28.48
2022-08-17T21:58:31.383Z,20.83
2022-08-17T22:01:24.284Z,30.55
2022-08-17T22:04:20.098Z,26.73
2022-08-17T22:06:56.845Z,24.85
2022-08-17T22:09:29.077Z,24.98
2022-08-17T22:12:06.017Z,25.90
2022-08-17T22:14:52.345Z,23.42
2022-08-17T22:17:26.311Z,19.90
2022-08-17T22:19:57.493Z,18.23
2022-08-17T22:22:33.110Z,23.13
2022-08-17T22:25:04.310Z,29.80
2022-08-17T22:27:47.208Z,24.45
2022-08-17T22:30:20.995Z,31.10
2022-08-17T22:32:50.005Z,27.42
2022-08-17T22:35:42.081Z,31.38
2022-08-17T22:38:32.956Z,28.55
2022-08-17T22:41:37.111Z,31.58
2022-08-17T22:44:27.330Z,29.58
2022-08-17T22:47:02.067Z,26.77
2022-08-17T22:49:34.314Z,29.40
2022-08-17T22:52:09.311Z,33.58
2022-08-17T22:54:55.371Z,29.98
2022-08-17T22:57:51.711Z,32.45
2022-08-17T23:00:38.657Z,25.42
2022-08-17T23:03:25.679Z,37.45
2022-08-17T23:06:06.254Z,27.33
2022-08-17T23:08:38.852Z,30.08
2022-08-17T23:11:07.977Z,29.10
2022-08-17T23:13:38.381Z,25.23
2022-08-17T23:16:07.042Z,23.92
2022-08-17T23:18:37.612Z,31.67
2022-08-17T23:21:08.281Z,28.23
2022-08-17T23:23:42.005Z,37.78
2022-08-17T23:26:11.625Z,36.53
2022-08-17T23:28:41.245Z,28.00
2022-08-17T23:31:09.995Z,37.08
2022-08-17T23:33:41.731Z,33.20
2022-08-17T23:36:15.464Z,29.48
2022-08-17T23:38:46.910Z,28.73
2022-08-17T23:41:19.376Z,38.42
2022-08-17T23:43:53.083Z,32.88
2022-08-17T23:46:22.544Z,34.17
2022-08-17T23:48:53.618Z,35.45
2022-08-17T23:51:25.366Z,35.08
2022-08-17T23:54:00.481Z,31.30
2022-08-17T23:56:33.684Z,32.05
2022-08-17T23:59:02.984Z,26.35
